sensor_id;sensor_type;location;lat;lon;timestamp;temperature;humidity
18950;DHT22;9608;49.288;8.130;2023-11-21T00:00:04;10.40;99.90
18950;DHT22;9608;49.288;8.130;2023-11-21T00:02:35;10.30;99.90
18950;DHT22;9608;49.288;8.130;2023-11-21T00:05:04;10.40;99.90
18950;DHT22;9608;49.288;8.130;2023-11-21T00:07:33;10.40;99.90
18950;DHT22;9608;49.288;8.130;2023-11-21T00:10:00;10.50;99.90
18950;DHT22;9608;49.288;8.130;2023-11-21T00:12:29;10.60;99.90
18950;DHT22;9608;49.288;8.130;2023-11-21T00:14:57;10.60;99.90
18950;DHT22;9608;49.288;8.130;2023-11-21T00:17:24;10.60;99.90
18950;DHT22;9608;49.288;8.130;2023-11-21T00:19:50;10.60;99.90
18950;DHT22;9608;49.288;8.130;2023-11-21T00:22:18;10.50;99.90
18950;DHT22;9608;49.288;8.130;2023-11-21T00:24:45;10.50;99.90
18950;DHT22;9608;49.288;8.130;2023-11-21T00:27:11;10.50;99.90
18950;DHT22;9608;49.288;8.130;2023-11-21T00:29:38;10.50;99.90
18950;DHT22;9608;49.288;8.130;2023-11-21T00:32:06;10.50;99.90
18950;DHT22;9608;49.288;8.130;2023-11-21T00:34:33;10.50;99.90
18950;DHT22;9608;49.288;8.130;2023-11-21T00:37:00;10.60;99.90
18950;DHT22;9608;49.288;8.130;2023-11-21T00:39:31;10.60;99.90
18950;DHT22;9608;49.288;8.130;2023-11-21T00:41:58;10.60;99.90
18950;DHT22;9608;49.288;8.130;2023-11-21T00:44:25;10.60;99.90
18950;DHT22;9608;49.288;8.130;2023-11-21T00:46:53;10.60;99.90
18950;DHT22;9608;49.288;8.130;2023-11-21T00:49:19;10.60;99.90
18950;DHT22;9608;49.288;8.130;2023-11-21T00:51:47;10.60;99.90
18950;DHT22;9608;49.288;8.130;2023-11-21T00:54:13;10.60;99.90
18950;DHT22;9608;49.288;8.130;2023-11-21T00:56:42;10.60;99.90
18950;DHT22;9608;49.288;8.130;2023-11-21T00:59:09;10.60;99.90
18950;DHT22;9608;49.288;8.130;2023-11-21T01:01:36;10.60;99.90
18950;DHT22;9608;49.288;8.130;2023-11-21T01:04:04;10.60;99.90
18950;DHT22;9608;49.288;8.130;2023-11-21T01:06:32;10.50;99.90
18950;DHT22;9608;49.288;8.130;2023-11-21T01:08:58;10.50;99.90
18950;DHT22;9608;49.288;8.130;2023-11-21T01:11:25;10.50;99.90
18950;DHT22;9608;49.288;8.130;2023-11-21T01:13:52;10.50;99.90
18950;DHT22;9608;49.288;8.130;2023-11-21T01:16:19;10.50;99.90
18950;DHT22;9608;49.288;8.130;2023-11-21T01:18:46;10.40;99.90
18950;DHT22;9608;49.288;8.130;2023-11-21T01:21:14;10.30;99.90
18950;DHT22;9608;49.288;8.130;2023-11-21T01:23:40;10.30;99.90
18950;DHT22;9608;49.288;8.130;2023-11-21T01:26:07;10.40;99.90
18950;DHT22;9608;49.288;8.130;2023-11-21T01:28:34;10.40;99.90
18950;DHT22;9608;49.288;8.130;2023-11-21T01:31:01;10.40;99.90
18950;DHT22;9608;49.288;8.130;2023-11-21T01:33:28;10.40;99.90
18950;DHT22;9608;49.288;8.130;2023-11-21T01:35:54;10.40;99.90
18950;DHT22;9608;49.288;8.130;2023-11-21T01:38:23;10.30;99.90
18950;DHT22;9608;49.288;8.130;2023-11-21T01:40:49;10.20;99.90
18950;DHT22;9608;49.288;8.130;2023-11-21T01:43:16;10.30;99.90
18950;DHT22;9608;49.288;8.130;2023-11-21T01:45:43;10.30;99.90
18950;DHT22;9608;49.288;8.130;2023-11-21T01:48:10;10.20;99.90
18950;DHT22;9608;49.288;8.130;2023-11-21T01:50:38;10.20;99.90
18950;DHT22;9608;49.288;8.130;2023-11-21T01:53:05;10.10;99.90
18950;DHT22;9608;49.288;8.130;2023-11-21T01:55:33;10.10;99.90
18950;DHT22;9608;49.288;8.130;2023-11-21T01:58:00;10.10;99.90
18950;DHT22;9608;49.288;8.130;2023-11-21T02:00:27;10.10;99.90
18950;DHT22;9608;49.288;8.130;2023-11-21T02:02:55;10.00;99.90
18950;DHT22;9608;49.288;8.130;2023-11-21T02:05:22;10.10;99.90
18950;DHT22;9608;49.288;8.130;2023-11-21T02:07:48;10.10;99.90
18950;DHT22;9608;49.288;8.130;2023-11-21T02:10:18;10.00;99.90
18950;DHT22;9608;49.288;8.130;2023-11-21T02:12:49;10.10;99.90
18950;DHT22;9608;49.288;8.130;2023-11-21T02:15:17;10.10;99.90
18950;DHT22;9608;49.288;8.130;2023-11-21T02:17:46;10.10;99.90
18950;DHT22;9608;49.288;8.130;2023-11-21T02:20:17;10.10;99.90
18950;DHT22;9608;49.288;8.130;2023-11-21T02:22:48;10.00;99.90
18950;DHT22;9608;49.288;8.130;2023-11-21T02:25:15;10.10;99.90
18950;DHT22;9608;49.288;8.130;2023-11-21T02:27:43;10.10;99.90
18950;DHT22;9608;49.288;8.130;2023-11-21T02:30:14;10.10;99.90
18950;DHT22;9608;49.288;8.130;2023-11-21T02:32:41;10.10;99.90
18950;DHT22;9608;49.288;8.130;2023-11-21T02:35:09;10.10;99.90
18950;DHT22;9608;49.288;8.130;2023-11-21T02:37:37;10.20;99.90
18950;DHT22;9608;49.288;8.130;2023-11-21T02:40:08;10.20;99.90
18950;DHT22;9608;49.288;8.130;2023-11-21T02:42:35;10.20;99.90
18950;DHT22;9608;49.288;8.130;2023-11-21T02:45:02;10.20;99.90
18950;DHT22;9608;49.288;8.130;2023-11-21T02:47:31;10.20;99.90
18950;DHT22;9608;49.288;8.130;2023-11-21T02:49:57;10.20;99.90
18950;DHT22;9608;49.288;8.130;2023-11-21T02:52:24;10.20;99.90
18950;DHT22;9608;49.288;8.130;2023-11-21T02:54:51;10.20;99.90
18950;DHT22;9608;49.288;8.130;2023-11-21T02:57:19;10.20;99.90
18950;DHT22;9608;49.288;8.130;2023-11-21T02:59:46;10.20;99.90
18950;DHT22;9608;49.288;8.130;2023-11-21T03:02:13;10.20;99.90
18950;DHT22;9608;49.288;8.130;2023-11-21T03:04:41;10.20;99.90
18950;DHT22;9608;49.288;8.130;2023-11-21T03:07:08;10.20;99.90
18950;DHT22;9608;49.288;8.130;2023-11-21T03:09:34;10.20;99.90
18950;DHT22;9608;49.288;8.130;2023-11-21T03:12:01;10.10;99.90
18950;DHT22;9608;49.288;8.130;2023-11-21T03:14:29;10.20;99.90
18950;DHT22;9608;49.288;8.130;2023-11-21T03:16:57;10.20;99.90
18950;DHT22;9608;49.288;8.130;2023-11-21T03:19:23;10.30;99.90
18950;DHT22;9608;49.288;8.130;2023-11-21T03:21:50;10.30;99.90
18950;DHT22;9608;49.288;8.130;2023-11-21T03:24:18;10.30;99.90
18950;DHT22;9608;49.288;8.130;2023-11-21T03:26:45;10.40;99.90
18950;DHT22;9608;49.288;8.130;2023-11-21T03:29:12;10.40;99.90
18950;DHT22;9608;49.288;8.130;2023-11-21T03:31:41;10.50;99.90
18950;DHT22;9608;49.288;8.130;2023-11-21T03:34:15;10.60;99.90
18950;DHT22;9608;49.288;8.130;2023-11-21T03:36:41;10.60;99.90
18950;DHT22;9608;49.288;8.130;2023-11-21T03:39:08;10.60;99.90
18950;DHT22;9608;49.288;8.130;2023-11-21T03:41:35;10.50;99.90
18950;DHT22;9608;49.288;8.130;2023-11-21T03:44:02;10.60;99.90
18950;DHT22;9608;49.288;8.130;2023-11-21T03:46:28;10.60;99.90
18950;DHT22;9608;49.288;8.130;2023-11-21T03:48:56;10.60;99.90
18950;DHT22;9608;49.288;8.130;2023-11-21T03:51:23;10.70;99.90
18950;DHT22;9608;49.288;8.130;2023-11-21T03:53:50;10.70;99.90
18950;DHT22;9608;49.288;8.130;2023-11-21T03:56:17;10.80;99.90
18950;DHT22;9608;49.288;8.130;2023-11-21T03:58:43;10.80;99.90
18950;DHT22;9608;49.288;8.130;2023-11-21T04:01:10;10.80;99.90
18950;DHT22;9608;49.288;8.130;2023-11-21T04:03:37;10.80;99.90
18950;DHT22;9608;49.288;8.130;2023-11-21T04:06:07;10.80;99.90
18950;DHT22;9608;49.288;8.130;2023-11-21T04:08:35;10.50;99.90
18950;DHT22;9608;49.288;8.130;2023-11-21T04:11:02;10.30;99.90
18950;DHT22;9608;49.288;8.130;2023-11-21T04:13:29;10.20;99.90
18950;DHT22;9608;49.288;8.130;2023-11-21T04:15:56;10.00;99.90
18950;DHT22;9608;49.288;8.130;2023-11-21T04:18:23;9.90;99.90
18950;DHT22;9608;49.288;8.130;2023-11-21T04:20:50;9.90;99.90
18950;DHT22;9608;49.288;8.130;2023-11-21T04:23:18;9.90;99.90
18950;DHT22;9608;49.288;8.130;2023-11-21T04:25:44;10.00;99.90
18950;DHT22;9608;49.288;8.130;2023-11-21T04:28:12;10.10;99.90
18950;DHT22;9608;49.288;8.130;2023-11-21T04:30:38;10.20;99.90
18950;DHT22;9608;49.288;8.130;2023-11-21T04:33:06;10.30;99.90
18950;DHT22;9608;49.288;8.130;2023-11-21T04:35:33;10.40;99.90
18950;DHT22;9608;49.288;8.130;2023-11-21T04:37:59;10.50;99.90
18950;DHT22;9608;49.288;8.130;2023-11-21T04:40:27;10.60;99.90
18950;DHT22;9608;49.288;8.130;2023-11-21T04:42:53;10.70;99.90
18950;DHT22;9608;49.288;8.130;2023-11-21T04:45:20;10.70;99.90
18950;DHT22;9608;49.288;8.130;2023-11-21T04:47:46;10.80;99.90
18950;DHT22;9608;49.288;8.130;2023-11-21T04:50:13;10.80;99.90
18950;DHT22;9608;49.288;8.130;2023-11-21T04:52:40;10.80;99.90
18950;DHT22;9608;49.288;8.130;2023-11-21T04:55:07;10.70;99.90
18950;DHT22;9608;49.288;8.130;2023-11-21T04:57:37;10.70;99.90
18950;DHT22;9608;49.288;8.130;2023-11-21T05:00:04;10.60;99.90
18950;DHT22;9608;49.288;8.130;2023-11-21T05:02:31;10.60;99.90
18950;DHT22;9608;49.288;8.130;2023-11-21T05:04:59;10.70;99.90
18950;DHT22;9608;49.288;8.130;2023-11-21T05:07:26;10.70;99.90
18950;DHT22;9608;49.288;8.130;2023-11-21T05:09:54;10.70;99.90
18950;DHT22;9608;49.288;8.130;2023-11-21T05:12:21;10.80;99.90
18950;DHT22;9608;49.288;8.130;2023-11-21T05:14:50;10.80;99.90
18950;DHT22;9608;49.288;8.130;2023-11-21T05:17:17;10.80;99.90
18950;DHT22;9608;49.288;8.130;2023-11-21T05:19:43;10.80;99.90
18950;DHT22;9608;49.288;8.130;2023-11-21T05:22:11;10.80;99.90
18950;DHT22;9608;49.288;8.130;2023-11-21T05:24:38;10.80;99.90
18950;DHT22;9608;49.288;8.130;2023-11-21T05:27:05;10.70;99.90
18950;DHT22;9608;49.288;8.130;2023-11-21T05:29:32;10.70;99.90
18950;DHT22;9608;49.288;8.130;2023-11-21T05:32:00;10.80;99.90
18950;DHT22;9608;49.288;8.130;2023-11-21T05:34:26;10.80;99.90
18950;DHT22;9608;49.288;8.130;2023-11-21T05:36:53;10.80;99.90
18950;DHT22;9608;49.288;8.130;2023-11-21T05:39:20;10.80;99.90
18950;DHT22;9608;49.288;8.130;2023-11-21T05:41:47;10.80;99.90
18950;DHT22;9608;49.288;8.130;2023-11-21T05:44:14;10.80;99.90
18950;DHT22;9608;49.288;8.130;2023-11-21T05:46:40;10.80;99.90
18950;DHT22;9608;49.288;8.130;2023-11-21T05:49:10;10.80;99.90
18950;DHT22;9608;49.288;8.130;2023-11-21T05:51:37;10.80;99.90
18950;DHT22;9608;49.288;8.130;2023-11-21T05:54:04;10.80;99.90
18950;DHT22;9608;49.288;8.130;2023-11-21T05:56:31;10.70;99.90
18950;DHT22;9608;49.288;8.130;2023-11-21T05:58:58;10.70;99.90
18950;DHT22;9608;49.288;8.130;2023-11-21T06:01:25;10.70;99.90
18950;DHT22;9608;49.288;8.130;2023-11-21T06:03:53;10.70;99.90
18950;DHT22;9608;49.288;8.130;2023-11-21T06:06:21;10.70;99.90
18950;DHT22;9608;49.288;8.130;2023-11-21T06:08:50;10.60;99.90
18950;DHT22;9608;49.288;8.130;2023-11-21T06:11:16;10.60;99.90
18950;DHT22;9608;49.288;8.130;2023-11-21T06:13:44;10.70;99.90
18950;DHT22;9608;49.288;8.130;2023-11-21T06:16:10;10.70;99.90
18950;DHT22;9608;49.288;8.130;2023-11-21T06:18:38;10.50;99.90
18950;DHT22;9608;49.288;8.130;2023-11-21T06:21:05;10.30;99.90
18950;DHT22;9608;49.288;8.130;2023-11-21T06:23:33;10.20;99.90
18950;DHT22;9608;49.288;8.130;2023-11-21T06:26:01;10.00;99.90
18950;DHT22;9608;49.288;8.130;2023-11-21T06:28:27;10.10;99.90
18950;DHT22;9608;49.288;8.130;2023-11-21T06:30:54;10.20;99.90
18950;DHT22;9608;49.288;8.130;2023-11-21T06:33:21;10.20;99.90
18950;DHT22;9608;49.288;8.130;2023-11-21T06:35:48;10.20;99.90
18950;DHT22;9608;49.288;8.130;2023-11-21T06:38:15;10.00;99.90
18950;DHT22;9608;49.288;8.130;2023-11-21T06:40:43;9.70;99.90
18950;DHT22;9608;49.288;8.130;2023-11-21T06:43:11;9.40;99.90
18950;DHT22;9608;49.288;8.130;2023-11-21T06:45:37;9.30;99.90
18950;DHT22;9608;49.288;8.130;2023-11-21T06:48:04;9.30;99.90
18950;DHT22;9608;49.288;8.130;2023-11-21T06:50:31;9.30;99.90
18950;DHT22;9608;49.288;8.130;2023-11-21T06:52:57;9.20;99.90
18950;DHT22;9608;49.288;8.130;2023-11-21T06:55:24;9.20;99.90
18950;DHT22;9608;49.288;8.130;2023-11-21T06:57:53;9.20;99.90
18950;DHT22;9608;49.288;8.130;2023-11-21T07:00:19;9.20;99.90
18950;DHT22;9608;49.288;8.130;2023-11-21T07:02:46;9.30;99.90
18950;DHT22;9608;49.288;8.130;2023-11-21T07:05:13;9.40;99.90
18950;DHT22;9608;49.288;8.130;2023-11-21T07:07:41;9.40;99.90
18950;DHT22;9608;49.288;8.130;2023-11-21T07:10:09;9.40;99.90
18950;DHT22;9608;49.288;8.130;2023-11-21T07:12:37;9.30;99.90
18950;DHT22;9608;49.288;8.130;2023-11-21T07:18:21;9.30;99.90
18950;DHT22;9608;49.288;8.130;2023-11-21T07:20:49;9.20;99.90
18950;DHT22;9608;49.288;8.130;2023-11-21T07:23:17;9.30;99.90
18950;DHT22;9608;49.288;8.130;2023-11-21T07:25:45;9.20;99.90
18950;DHT22;9608;49.288;8.130;2023-11-21T07:28:13;9.20;99.90
18950;DHT22;9608;49.288;8.130;2023-11-21T07:30:41;9.30;99.90
18950;DHT22;9608;49.288;8.130;2023-11-21T07:33:09;9.30;99.90
18950;DHT22;9608;49.288;8.130;2023-11-21T07:35:39;9.30;99.90
18950;DHT22;9608;49.288;8.130;2023-11-21T07:38:07;9.20;99.90
18950;DHT22;9608;49.288;8.130;2023-11-21T07:40:34;9.20;99.90
18950;DHT22;9608;49.288;8.130;2023-11-21T07:43:02;9.10;99.90
18950;DHT22;9608;49.288;8.130;2023-11-21T07:45:31;9.20;99.90
18950;DHT22;9608;49.288;8.130;2023-11-21T07:47:58;9.30;99.90
18950;DHT22;9608;49.288;8.130;2023-11-21T07:50:26;9.30;99.90
18950;DHT22;9608;49.288;8.130;2023-11-21T07:52:58;9.40;99.90
18950;DHT22;9608;49.288;8.130;2023-11-21T07:55:33;9.40;99.90
18950;DHT22;9608;49.288;8.130;2023-11-21T07:58:17;9.50;99.90
18950;DHT22;9608;49.288;8.130;2023-11-21T08:00:56;9.50;99.90
18950;DHT22;9608;49.288;8.130;2023-11-21T08:03:48;9.50;99.90
18950;DHT22;9608;49.288;8.130;2023-11-21T08:06:27;9.50;99.90
18950;DHT22;9608;49.288;8.130;2023-11-21T08:09:14;9.70;99.90
18950;DHT22;9608;49.288;8.130;2023-11-21T08:12:03;9.80;99.90
18950;DHT22;9608;49.288;8.130;2023-11-21T08:14:54;9.80;99.90
18950;DHT22;9608;49.288;8.130;2023-11-21T08:18:09;9.80;99.90
18950;DHT22;9608;49.288;8.130;2023-11-21T08:20:58;9.90;99.90
18950;DHT22;9608;49.288;8.130;2023-11-21T08:23:51;10.00;99.90
18950;DHT22;9608;49.288;8.130;2023-11-21T08:26:56;10.00;99.90
18950;DHT22;9608;49.288;8.130;2023-11-21T08:29:37;10.10;99.90
18950;DHT22;9608;49.288;8.130;2023-11-21T08:32:11;10.30;99.90
18950;DHT22;9608;49.288;8.130;2023-11-21T08:34:42;10.30;99.90
18950;DHT22;9608;49.288;8.130;2023-11-21T08:37:32;10.40;99.90
18950;DHT22;9608;49.288;8.130;2023-11-21T08:40:12;10.40;99.90
18950;DHT22;9608;49.288;8.130;2023-11-21T08:42:43;10.60;99.90
18950;DHT22;9608;49.288;8.130;2023-11-21T08:45:11;10.60;99.90
18950;DHT22;9608;49.288;8.130;2023-11-21T08:47:38;10.60;99.90
18950;DHT22;9608;49.288;8.130;2023-11-21T08:50:06;10.60;99.90
18950;DHT22;9608;49.288;8.130;2023-11-21T08:52:33;10.50;99.90
18950;DHT22;9608;49.288;8.130;2023-11-21T08:54:59;10.60;99.90
18950;DHT22;9608;49.288;8.130;2023-11-21T08:57:40;10.60;99.90
18950;DHT22;9608;49.288;8.130;2023-11-21T09:00:27;10.70;99.90
18950;DHT22;9608;49.288;8.130;2023-11-21T09:03:14;10.70;99.90
18950;DHT22;9608;49.288;8.130;2023-11-21T09:06:19;10.70;99.90
18950;DHT22;9608;49.288;8.130;2023-11-21T09:09:10;10.60;99.90
18950;DHT22;9608;49.288;8.130;2023-11-21T09:11:40;10.50;99.90
18950;DHT22;9608;49.288;8.130;2023-11-21T09:14:10;10.70;99.90
18950;DHT22;9608;49.288;8.130;2023-11-21T09:16:46;10.70;99.90
18950;DHT22;9608;49.288;8.130;2023-11-21T09:19:17;10.70;99.90
18950;DHT22;9608;49.288;8.130;2023-11-21T09:22:17;10.60;99.90
18950;DHT22;9608;49.288;8.130;2023-11-21T09:24:47;10.70;99.90
18950;DHT22;9608;49.288;8.130;2023-11-21T09:27:32;10.60;99.90
18950;DHT22;9608;49.288;8.130;2023-11-21T09:30:20;10.60;99.90
18950;DHT22;9608;49.288;8.130;2023-11-21T09:33:05;10.60;99.90
18950;DHT22;9608;49.288;8.130;2023-11-21T09:35:49;10.70;99.90
18950;DHT22;9608;49.288;8.130;2023-11-21T09:38:42;10.60;99.90
18950;DHT22;9608;49.288;8.130;2023-11-21T09:41:43;10.70;99.90
18950;DHT22;9608;49.288;8.130;2023-11-21T09:44:35;10.60;99.90
18950;DHT22;9608;49.288;8.130;2023-11-21T09:47:10;10.70;99.90
18950;DHT22;9608;49.288;8.130;2023-11-21T09:49:47;10.70;99.90
18950;DHT22;9608;49.288;8.130;2023-11-21T09:52:31;10.70;99.90
18950;DHT22;9608;49.288;8.130;2023-11-21T09:55:42;10.60;99.90
18950;DHT22;9608;49.288;8.130;2023-11-21T09:58:22;10.40;99.90
18950;DHT22;9608;49.288;8.130;2023-11-21T10:00:53;10.20;99.90
18950;DHT22;9608;49.288;8.130;2023-11-21T10:03:45;10.10;99.90
18950;DHT22;9608;49.288;8.130;2023-11-21T10:06:37;10.00;99.90
18950;DHT22;9608;49.288;8.130;2023-11-21T10:09:22;9.80;99.90
18950;DHT22;9608;49.288;8.130;2023-11-21T10:11:56;9.90;99.90
18950;DHT22;9608;49.288;8.130;2023-11-21T10:14:46;9.90;99.90
18950;DHT22;9608;49.288;8.130;2023-11-21T10:17:28;9.90;99.90
18950;DHT22;9608;49.288;8.130;2023-11-21T10:20:06;10.00;99.90
18950;DHT22;9608;49.288;8.130;2023-11-21T10:22:41;10.00;99.90
18950;DHT22;9608;49.288;8.130;2023-11-21T10:25:18;9.90;99.90
18950;DHT22;9608;49.288;8.130;2023-11-21T10:27:49;10.00;99.90
18950;DHT22;9608;49.288;8.130;2023-11-21T10:30:18;10.10;99.90
18950;DHT22;9608;49.288;8.130;2023-11-21T10:32:45;10.10;99.90
18950;DHT22;9608;49.288;8.130;2023-11-21T10:35:12;10.20;99.90
18950;DHT22;9608;49.288;8.130;2023-11-21T10:37:41;10.20;99.90
18950;DHT22;9608;49.288;8.130;2023-11-21T10:40:10;10.20;99.90
18950;DHT22;9608;49.288;8.130;2023-11-21T10:42:37;10.30;99.90
18950;DHT22;9608;49.288;8.130;2023-11-21T10:45:06;10.30;99.90
18950;DHT22;9608;49.288;8.130;2023-11-21T10:47:39;10.40;99.90
18950;DHT22;9608;49.288;8.130;2023-11-21T10:50:09;10.30;99.90
18950;DHT22;9608;49.288;8.130;2023-11-21T10:52:37;10.20;99.90
18950;DHT22;9608;49.288;8.130;2023-11-21T10:55:20;10.20;99.90
18950;DHT22;9608;49.288;8.130;2023-11-21T10:57:53;10.10;99.90
18950;DHT22;9608;49.288;8.130;2023-11-21T11:00:24;10.10;99.90
18950;DHT22;9608;49.288;8.130;2023-11-21T11:02:57;10.20;99.90
18950;DHT22;9608;49.288;8.130;2023-11-21T11:05:30;10.30;99.90
18950;DHT22;9608;49.288;8.130;2023-11-21T11:08:39;10.20;99.90
18950;DHT22;9608;49.288;8.130;2023-11-21T11:30:02;10.00;99.90
18950;DHT22;9608;49.288;8.130;2023-11-21T11:32:51;9.90;99.90
18950;DHT22;9608;49.288;8.130;2023-11-21T11:35:57;9.90;99.90
18950;DHT22;9608;49.288;8.130;2023-11-21T11:43:42;9.80;99.90
18950;DHT22;9608;49.288;8.130;2023-11-21T12:07:52;9.80;99.90
18950;DHT22;9608;49.288;8.130;2023-11-21T12:10:47;9.80;99.90
18950;DHT22;9608;49.288;8.130;2023-11-21T12:13:25;10.00;99.90
18950;DHT22;9608;49.288;8.130;2023-11-21T12:16:02;10.00;99.90
18950;DHT22;9608;49.288;8.130;2023-11-21T12:18:29;10.20;99.90
18950;DHT22;9608;49.288;8.130;2023-11-21T12:20:56;10.20;99.90
18950;DHT22;9608;49.288;8.130;2023-11-21T12:23:25;10.20;99.90
18950;DHT22;9608;49.288;8.130;2023-11-21T12:25:53;10.20;99.90
18950;DHT22;9608;49.288;8.130;2023-11-21T12:28:20;10.40;99.90
18950;DHT22;9608;49.288;8.130;2023-11-21T12:30:48;10.40;99.90
18950;DHT22;9608;49.288;8.130;2023-11-21T12:33:15;10.50;99.90
18950;DHT22;9608;49.288;8.130;2023-11-21T12:35:43;10.60;99.90
18950;DHT22;9608;49.288;8.130;2023-11-21T12:38:10;10.80;99.90
18950;DHT22;9608;49.288;8.130;2023-11-21T12:40:38;10.90;99.90
18950;DHT22;9608;49.288;8.130;2023-11-21T12:43:06;10.90;99.90
18950;DHT22;9608;49.288;8.130;2023-11-21T12:45:35;11.00;99.90
18950;DHT22;9608;49.288;8.130;2023-11-21T12:48:05;11.00;99.90
18950;DHT22;9608;49.288;8.130;2023-11-21T12:50:34;11.00;99.90
18950;DHT22;9608;49.288;8.130;2023-11-21T12:53:03;11.00;99.90
18950;DHT22;9608;49.288;8.130;2023-11-21T12:55:31;11.10;99.90
18950;DHT22;9608;49.288;8.130;2023-11-21T12:58:02;11.10;99.90
18950;DHT22;9608;49.288;8.130;2023-11-21T13:00:35;11.10;99.90
18950;DHT22;9608;49.288;8.130;2023-11-21T13:03:04;11.00;99.90
18950;DHT22;9608;49.288;8.130;2023-11-21T13:05:33;11.10;99.90
18950;DHT22;9608;49.288;8.130;2023-11-21T13:08:05;11.00;99.90
18950;DHT22;9608;49.288;8.130;2023-11-21T13:10:35;10.90;99.90
18950;DHT22;9608;49.288;8.130;2023-11-21T13:13:06;10.80;99.90
18950;DHT22;9608;49.288;8.130;2023-11-21T13:15:36;10.80;99.90
18950;DHT22;9608;49.288;8.130;2023-11-21T13:18:06;10.80;99.90
18950;DHT22;9608;49.288;8.130;2023-11-21T13:20:34;10.90;99.90
18950;DHT22;9608;49.288;8.130;2023-11-21T13:23:07;11.00;99.90
18950;DHT22;9608;49.288;8.130;2023-11-21T13:25:36;11.00;99.90
18950;DHT22;9608;49.288;8.130;2023-11-21T13:28:04;11.10;99.90
18950;DHT22;9608;49.288;8.130;2023-11-21T13:30:32;11.10;99.90
18950;DHT22;9608;49.288;8.130;2023-11-21T13:33:00;11.10;99.90
18950;DHT22;9608;49.288;8.130;2023-11-21T13:35:27;11.20;99.90
18950;DHT22;9608;49.288;8.130;2023-11-21T13:38:03;11.30;99.90
18950;DHT22;9608;49.288;8.130;2023-11-21T13:40:32;11.50;99.90
18950;DHT22;9608;49.288;8.130;2023-11-21T13:43:06;11.40;99.90
18950;DHT22;9608;49.288;8.130;2023-11-21T13:45:35;11.50;99.90
18950;DHT22;9608;49.288;8.130;2023-11-21T13:48:02;11.40;99.90
18950;DHT22;9608;49.288;8.130;2023-11-21T13:50:32;11.30;99.90
18950;DHT22;9608;49.288;8.130;2023-11-21T13:52:59;11.30;99.90
18950;DHT22;9608;49.288;8.130;2023-11-21T13:55:30;11.20;99.90
18950;DHT22;9608;49.288;8.130;2023-11-21T13:57:58;11.30;99.90
18950;DHT22;9608;49.288;8.130;2023-11-21T14:00:26;11.20;99.90
18950;DHT22;9608;49.288;8.130;2023-11-21T14:03:12;11.30;99.90
18950;DHT22;9608;49.288;8.130;2023-11-21T14:05:47;11.30;99.90
18950;DHT22;9608;49.288;8.130;2023-11-21T14:08:18;11.20;99.90
18950;DHT22;9608;49.288;8.130;2023-11-21T14:10:45;11.30;99.90
18950;DHT22;9608;49.288;8.130;2023-11-21T14:13:16;11.30;99.90
18950;DHT22;9608;49.288;8.130;2023-11-21T14:15:45;11.40;99.90
18950;DHT22;9608;49.288;8.130;2023-11-21T14:18:12;11.30;99.90
18950;DHT22;9608;49.288;8.130;2023-11-21T14:20:42;11.20;99.90
18950;DHT22;9608;49.288;8.130;2023-11-21T14:23:10;11.20;99.90
18950;DHT22;9608;49.288;8.130;2023-11-21T14:25:37;11.10;99.90
18950;DHT22;9608;49.288;8.130;2023-11-21T14:28:05;11.10;99.90
18950;DHT22;9608;49.288;8.130;2023-11-21T14:30:32;11.00;99.90
18950;DHT22;9608;49.288;8.130;2023-11-21T14:33:02;11.10;99.90
18950;DHT22;9608;49.288;8.130;2023-11-21T14:35:29;11.00;99.90
18950;DHT22;9608;49.288;8.130;2023-11-21T14:37:58;11.00;99.90
18950;DHT22;9608;49.288;8.130;2023-11-21T14:40:26;11.00;99.90
18950;DHT22;9608;49.288;8.130;2023-11-21T14:42:58;11.00;99.90
18950;DHT22;9608;49.288;8.130;2023-11-21T14:45:25;11.00;99.90
18950;DHT22;9608;49.288;8.130;2023-11-21T14:47:52;11.00;99.90
18950;DHT22;9608;49.288;8.130;2023-11-21T14:50:29;11.10;99.90
18950;DHT22;9608;49.288;8.130;2023-11-21T14:53:34;11.10;99.90
18950;DHT22;9608;49.288;8.130;2023-11-21T14:56:18;11.10;99.90
18950;DHT22;9608;49.288;8.130;2023-11-21T14:58:52;11.10;99.90
18950;DHT22;9608;49.288;8.130;2023-11-21T15:01:20;11.10;99.90
18950;DHT22;9608;49.288;8.130;2023-11-21T15:03:56;11.10;99.90
18950;DHT22;9608;49.288;8.130;2023-11-21T15:06:24;11.10;99.90
18950;DHT22;9608;49.288;8.130;2023-11-21T15:08:56;11.00;99.90
18950;DHT22;9608;49.288;8.130;2023-11-21T15:11:45;10.90;99.90
18950;DHT22;9608;49.288;8.130;2023-11-21T15:14:12;10.70;99.90
18950;DHT22;9608;49.288;8.130;2023-11-21T15:16:46;10.70;99.90
18950;DHT22;9608;49.288;8.130;2023-11-21T15:19:17;10.70;99.90
18950;DHT22;9608;49.288;8.130;2023-11-21T15:21:51;10.50;99.90
18950;DHT22;9608;49.288;8.130;2023-11-21T15:24:18;10.40;99.90
18950;DHT22;9608;49.288;8.130;2023-11-21T15:26:44;10.20;99.90
18950;DHT22;9608;49.288;8.130;2023-11-21T15:29:11;10.20;99.90
18950;DHT22;9608;49.288;8.130;2023-11-21T15:31:39;10.10;99.90
18950;DHT22;9608;49.288;8.130;2023-11-21T15:34:09;10.10;99.90
18950;DHT22;9608;49.288;8.130;2023-11-21T15:36:36;10.20;99.90
18950;DHT22;9608;49.288;8.130;2023-11-21T15:39:04;10.30;99.90
18950;DHT22;9608;49.288;8.130;2023-11-21T15:41:32;10.30;99.90
18950;DHT22;9608;49.288;8.130;2023-11-21T15:43:59;10.30;99.90
18950;DHT22;9608;49.288;8.130;2023-11-21T15:46:26;10.30;99.90
18950;DHT22;9608;49.288;8.130;2023-11-21T15:48:52;10.50;99.90
18950;DHT22;9608;49.288;8.130;2023-11-21T15:51:19;10.50;99.90
18950;DHT22;9608;49.288;8.130;2023-11-21T15:53:46;10.50;99.90
18950;DHT22;9608;49.288;8.130;2023-11-21T15:56:14;10.50;99.90
18950;DHT22;9608;49.288;8.130;2023-11-21T15:58:43;10.50;99.90
18950;DHT22;9608;49.288;8.130;2023-11-21T16:01:11;10.50;99.90
18950;DHT22;9608;49.288;8.130;2023-11-21T16:03:38;10.70;99.90
18950;DHT22;9608;49.288;8.130;2023-11-21T16:06:05;10.70;99.90
18950;DHT22;9608;49.288;8.130;2023-11-21T16:08:35;10.80;99.90
18950;DHT22;9608;49.288;8.130;2023-11-21T16:11:02;10.90;99.90
18950;DHT22;9608;49.288;8.130;2023-11-21T16:13:30;10.80;99.90
18950;DHT22;9608;49.288;8.130;2023-11-21T16:15:57;10.80;99.90
18950;DHT22;9608;49.288;8.130;2023-11-21T16:18:25;10.80;99.90
18950;DHT22;9608;49.288;8.130;2023-11-21T16:20:52;10.80;99.90
18950;DHT22;9608;49.288;8.130;2023-11-21T16:23:18;10.80;99.90
18950;DHT22;9608;49.288;8.130;2023-11-21T16:25:46;10.80;99.90
18950;DHT22;9608;49.288;8.130;2023-11-21T16:28:20;10.80;99.90
18950;DHT22;9608;49.288;8.130;2023-11-21T16:30:49;10.70;99.90
18950;DHT22;9608;49.288;8.130;2023-11-21T16:33:16;10.70;99.90
18950;DHT22;9608;49.288;8.130;2023-11-21T16:35:43;10.60;99.90
18950;DHT22;9608;49.288;8.130;2023-11-21T16:38:13;10.60;99.90
18950;DHT22;9608;49.288;8.130;2023-11-21T16:40:40;10.50;99.90
18950;DHT22;9608;49.288;8.130;2023-11-21T16:43:08;10.60;99.90
18950;DHT22;9608;49.288;8.130;2023-11-21T16:45:34;10.60;99.90
18950;DHT22;9608;49.288;8.130;2023-11-21T16:48:03;10.60;99.90
18950;DHT22;9608;49.288;8.130;2023-11-21T16:50:29;10.60;99.90
18950;DHT22;9608;49.288;8.130;2023-11-21T16:52:56;10.60;99.90
18950;DHT22;9608;49.288;8.130;2023-11-21T16:55:23;10.60;99.90
18950;DHT22;9608;49.288;8.130;2023-11-21T16:57:49;10.60;99.90